sim
Sign-in with your pilot id or email,
or register
Callsign
Passwort

Schedule Details

Flight Number: RYR6442 (2)
Departure: Brussels South Charleroi Airport (EBCI) at 09:10
Arrival: Fuerteventura Airport (GCFV) at 13:30
Route: Ryanair Passenger Schedule. Enter filed route here before submitting Pirep.

Weather Information
Getting current METAR information for EBCI 222220Z 09001KT CAVOK 21/14 Q1023 NOSIG
Getting current METAR information for GCFV 222230Z 36018KT CAVOK 21/17 Q1018

Schedule Frequency

Route Map